Time;durP1;ratioP1;P1;durP2;ratioP2;P2;SDS_P1;SDS_P2;PMS_P1;PMS_P2;Temp;Humidity;BMP_temperature;BMP_pressure;BME280_temperature;BME280_humidity;BME280_pressure;Samples;Min_cycle;Max_cycle;Signal;HPM_P1;HPM_P2
2021/01/29 03:47:33;;;;;;;36.30;17.53;;;6.30;99.90;;;;;;10027636;24;20046;-92
2021/01/29 03:53:11;;;;;;;52.95;21.02;;;6.10;99.90;;;;;;9980543;29;20124;-92
2021/01/29 03:58:52;;;;;;;39.95;19.00;;;6.10;99.90;;;;;;9983364;29;20062;-92
2021/01/29 04:04:25;;;;;;;21.75;13.70;;;6.20;99.90;;;;;;9955945;29;20074;-92
2021/01/29 04:09:56;;;;;;;15.98;11.88;;;6.30;99.90;;;;;;9969057;29;20065;-93
2021/01/29 04:15:15;;;;;;;42.40;21.02;;;6.40;99.90;;;;;;9967913;29;20493;-93
2021/01/29 04:20:54;;;;;;;74.18;24.50;;;6.50;99.90;;;;;;10016749;29;20581;-93
2021/01/29 04:26:08;;;;;;;28.48;15.80;;;6.50;99.90;;;;;;10020744;29;20141;-92
2021/01/29 04:31:14;;;;;;;28.25;14.82;;;6.50;99.90;;;;;;10010559;29;20053;-93
2021/01/29 04:36:19;;;;;;;43.72;19.65;;;6.40;99.90;;;;;;9997875;29;20141;-93
2021/01/29 04:41:54;;;;;;;29.70;16.33;;;6.40;99.90;;;;;;10011975;29;20145;-92
2021/01/29 04:47:18;;;;;;;22.27;13.18;;;6.40;99.90;;;;;;10042697;29;20058;-92
2021/01/29 04:53:03;;;;;;;23.55;15.10;;;7.00;99.90;;;;;;10012225;29;20062;-92
2021/01/29 04:58:17;;;;;;;31.05;18.35;;;7.10;99.90;;;;;;10042510;29;20057;-92
2021/01/29 05:03:47;;;;;;;32.05;15.27;;;7.40;99.90;;;;;;10026300;29;20486;-93
2021/01/29 05:09:32;;;;;;;42.78;21.17;;;7.30;99.90;;;;;;10026352;29;20065;-92
2021/01/29 05:15:11;;;;;;;45.78;20.40;;;7.30;99.90;;;;;;10026020;29;20516;-93
2021/01/29 05:20:45;;;;;;;33.45;17.92;;;7.60;99.90;;;;;;10025974;29;20064;-92
2021/01/29 05:26:17;;;;;;;32.17;16.77;;;7.50;99.90;;;;;;10011172;29;20194;-92
2021/01/29 05:32:02;;;;;;;22.70;14.13;;;7.70;99.90;;;;;;10025624;29;20054;-93
2021/01/29 05:37:32;;;;;;;31.38;16.88;;;7.60;99.90;;;;;;9992825;29;20109;-93
2021/01/29 05:42:42;;;;;;;30.45;14.88;;;7.70;99.90;;;;;;10011663;29;20393;-93
2021/01/29 05:48:25;;;;;;;18.55;12.05;;;7.70;99.90;;;;;;10024694;29;20141;-93
2021/01/29 05:54:23;;;;;;;17.80;11.57;;;7.70;99.90;;;;;;10024818;29;20057;-93
2021/01/29 06:00:11;;;;;;;21.42;13.75;;;7.80;99.90;;;;;;10024516;29;20136;-93
2021/01/29 06:05:52;;;;;;;28.70;13.38;;;7.80;99.90;;;;;;10024517;29;20092;-92
2021/01/29 06:11:38;;;;;;;14.90;8.95;;;7.70;99.90;;;;;;10025809;29;20498;-94
2021/01/29 06:17:17;;;;;;;11.70;7.45;;;8.00;99.90;;;;;;10008928;29;20050;-94
2021/01/29 06:22:49;;;;;;;12.15;9.45;;;8.00;99.90;;;;;;10008914;29;20046;-93
2021/01/29 06:28:15;;;;;;;16.25;9.73;;;8.10;99.90;;;;;;10025159;29;20061;-93
2021/01/29 06:34:29;;;;;;;12.05;9.63;;;8.10;99.90;;;;;;10008257;29;20153;-93
2021/01/29 06:40:00;;;;;;;15.17;10.53;;;8.10;99.90;;;;;;9834424;30;20128;-93
2021/01/29 06:45:52;;;;;;;9.80;7.78;;;8.00;99.90;;;;;;10006822;29;20494;-93
2021/01/29 06:51:32;;;;;;;8.10;5.85;;;8.00;99.90;;;;;;10007197;29;20490;-93
2021/01/29 06:56:50;;;;;;;10.63;7.70;;;8.00;99.90;;;;;;10006902;29;20144;-93
2021/01/29 07:02:19;;;;;;;13.68;9.32;;;8.00;99.90;;;;;;9994008;29;20161;-94
2021/01/29 07:07:50;;;;;;;16.20;10.88;;;8.00;99.90;;;;;;10022335;29;20468;-93
2021/01/29 07:13:19;;;;;;;21.90;12.43;;;8.10;99.90;;;;;;10022551;29;20092;-95
2021/01/29 07:18:40;;;;;;;17.02;11.65;;;8.10;99.90;;;;;;10023949;29;20062;-93
2021/01/29 07:24:30;;;;;;;16.90;9.93;;;8.00;99.90;;;;;;10006937;29;20114;-93
2021/01/29 07:30:16;;;;;;;22.10;12.70;;;8.10;99.90;;;;;;10007969;29;20114;-93
2021/01/29 07:36:13;;;;;;;15.25;10.48;;;8.20;99.90;;;;;;9832687;30;20147;-93
2021/01/29 07:41:37;;;;;;;12.50;9.23;;;8.20;99.90;;;;;;9976056;29;20137;-92
2021/01/29 07:46:59;;;;;;;15.20;8.45;;;8.10;99.90;;;;;;10007058;29;20054;-93
2021/01/29 07:52:24;;;;;;;13.85;7.25;;;8.20;99.90;;;;;;10006484;29;20058;-93
2021/01/29 07:57:36;;;;;;;15.45;8.13;;;8.20;99.90;;;;;;9990821;29;20091;-91
2021/01/29 08:02:51;;;;;;;;;;;8.30;99.90;;;;;;10023203;29;20058;-93
2021/01/29 08:08:09;;;;;;;27.48;6.72;;;8.40;99.90;;;;;;10014551;29;19999;-93
2021/01/29 08:13:32;;;;;;;31.73;7.72;;;8.40;99.90;;;;;;10013066;29;20074;-93
2021/01/29 08:18:45;;;;;;;;;;;8.40;99.90;;;;;;10012752;29;20066;-95
2021/01/29 08:24:29;;;;;;;20.92;5.63;;;8.30;99.90;;;;;;9998230;29;19973;-93
2021/01/29 08:30:03;;;;;;;32.90;7.57;;;8.30;99.90;;;;;;10002949;29;20137;-94
2021/01/29 08:35:30;;;;;;;24.73;4.90;;;8.30;99.90;;;;;;10009181;29;20111;-93
2021/01/29 08:40:44;;;;;;;30.27;6.65;;;8.30;99.90;;;;;;9975461;29;20091;-94
2021/01/29 08:46:02;;;;;;;21.85;6.45;;;8.20;99.90;;;;;;9974711;29;20105;-95
2021/01/29 08:51:22;;;;;;;31.27;7.63;;;8.20;99.90;;;;;;9973259;29;20066;-93
2021/01/29 08:56:38;;;;;;;39.63;9.98;;;8.20;99.90;;;;;;9975096;29;20061;-94
2021/01/29 09:02:09;;;;;;;36.78;7.78;;;8.20;99.90;;;;;;9988642;29;20062;-93
2021/01/29 09:07:41;;;;;;;36.40;8.02;;;8.10;99.90;;;;;;9989885;29;20145;-93
2021/01/29 09:12:45;;;;;;;50.45;8.40;;;8.10;99.90;;;;;;9980573;29;20509;-94
2021/01/29 09:18:14;;;;;;;32.58;6.53;;;8.10;99.90;;;;;;10010595;29;20077;-93
2021/01/29 09:23:34;;;;;;;44.92;8.40;;;8.00;99.90;;;;;;9996641;29;20150;-94
2021/01/29 09:28:44;;;;;;;53.72;8.77;;;8.00;99.90;;;;;;9996252;29;20111;-96
2021/01/29 09:34:17;;;;;;;48.75;6.95;;;8.00;99.90;;;;;;9995764;29;20053;-94
2021/01/29 09:39:29;;;;;;;46.72;8.23;;;8.00;99.90;;;;;;9997745;29;20102;-96
2021/01/29 09:44:57;;;;;;;48.50;9.68;;;8.00;99.90;;;;;;9994785;29;20490;-94
2021/01/29 09:55:49;;;;;;;46.22;8.85;;;8.10;99.90;;;;;;10022822;29;20391;-95
2021/01/29 10:01:13;;;;;;;41.78;8.88;;;8.20;99.90;;;;;;10004632;29;20056;-94
2021/01/29 10:06:48;;;;;;;48.17;9.13;;;8.30;99.90;;;;;;10023904;29;20110;-94
2021/01/29 10:11:59;;;;;;;49.95;7.25;;;8.30;99.90;;;;;;9995609;29;20062;-94
2021/01/29 10:17:22;;;;;;;46.10;8.23;;;8.30;99.90;;;;;;10008341;29;20145;-94
2021/01/29 10:23:07;;;;;;;35.97;8.27;;;8.40;99.90;;;;;;10009251;29;20053;-94
2021/01/29 10:29:03;;;;;;;48.80;8.07;;;8.50;99.90;;;;;;9980384;29;20453;-94
2021/01/29 10:34:31;;;;;;;30.10;6.40;;;8.60;99.90;;;;;;9920497;29;20078;-94
2021/01/29 10:40:18;;;;;;;43.85;7.85;;;8.70;99.90;;;;;;9970424;29;20054;-93
2021/01/29 10:45:49;;;;;;;41.90;8.43;;;8.90;99.90;;;;;;9980888;29;20536;-94
2021/01/29 10:51:06;;;;;;;44.90;9.45;;;9.00;99.90;;;;;;9969285;29;20414;-94
2021/01/29 10:56:16;;;;;;;47.22;9.25;;;9.20;99.90;;;;;;9970109;29;20166;-94
2021/01/29 11:01:36;;;;;;;41.13;7.68;;;9.10;99.90;;;;;;9970029;29;20058;-95
2021/01/29 11:07:05;;;;;;;38.33;8.63;;;9.30;99.90;;;;;;9987510;29;20053;-95
2021/01/29 11:12:24;;;;;;;38.22;7.82;;;9.30;99.90;;;;;;10001442;29;20145;-93
2021/01/29 11:17:32;;;;;;;32.63;7.80;;;9.40;99.90;;;;;;10021823;29;20057;-93
2021/01/29 11:22:51;;;;;;;30.23;6.75;;;9.50;99.90;;;;;;10007265;29;20073;-94
2021/01/29 11:28:00;;;;;;;35.70;6.60;;;9.50;99.90;;;;;;10006820;29;20169;-94
2021/01/29 11:33:08;;;;;;;42.08;8.55;;;9.40;99.90;;;;;;10021742;29;20145;-94
2021/01/29 11:38:44;;;;;;;28.17;7.07;;;9.40;99.90;;;;;;10002990;29;20456;-94
2021/01/29 11:44:11;;;;;;;37.65;6.75;;;9.10;99.90;;;;;;10016587;29;20054;-95
2021/01/29 12:55:06;;;;;;;;;;;8.90;99.90;;;;;;10015147;29;20061;-95
2021/01/29 13:00:38;;;;;;;28.77;6.85;;;9.00;99.90;;;;;;10011633;29;19925;-95
2021/01/29 13:06:17;;;;;;;37.08;6.07;;;8.90;99.90;;;;;;10011190;29;20145;-95
2021/01/29 13:11:51;;;;;;;30.23;6.53;;;9.10;99.90;;;;;;10011188;29;20137;-95
2021/01/29 13:17:30;;;;;;;27.70;5.97;;;9.10;99.90;;;;;;9992744;29;20070;-95
2021/01/29 13:22:40;;;;;;;30.27;5.20;;;9.20;99.90;;;;;;10010711;29;20065;-95
2021/01/29 13:28:15;;;;;;;33.50;6.72;;;9.10;99.90;;;;;;10010518;29;20529;-95
2021/01/29 13:33:25;;;;;;;30.80;6.45;;;9.00;99.90;;;;;;9995544;29;20061;-94
2021/01/29 13:38:38;;;;;;;26.98;5.53;;;8.90;99.90;;;;;;9994556;29;20387;-95
2021/01/29 13:43:44;;;;;;;28.63;5.10;;;8.80;99.90;;;;;;10010664;29;20117;-95
2021/01/29 13:48:45;;;;;;;31.83;5.32;;;9.00;99.90;;;;;;10024951;29;20086;-94
2021/01/29 13:53:47;;;;;;;33.75;7.03;;;9.00;99.90;;;;;;10024019;29;20087;-92
2021/01/29 13:59:22;;;;;;;22.85;6.28;;;9.00;99.90;;;;;;9980033;29;20064;-94
2021/01/29 14:04:43;;;;;;;34.90;6.07;;;9.00;99.90;;;;;;10008342;29;20141;-95
2021/01/29 14:09:45;;;;;;;29.83;5.80;;;8.90;99.90;;;;;;9975882;29;20133;-95
2021/01/29 14:14:59;;;;;;;;;;;8.90;99.90;;;;;;9986867;29;20064;-95
2021/01/29 14:20:20;;;;;;;39.17;6.25;;;8.90;99.90;;;;;;9971151;29;19929;-95
2021/01/29 14:25:54;;;;;;;27.58;6.38;;;8.90;99.90;;;;;;9985789;29;20115;-95
2021/01/29 14:31:11;;;;;;;35.25;6.45;;;8.80;99.90;;;;;;10001723;29;20149;-95
2021/01/29 14:36:23;;;;;;;31.52;6.75;;;8.80;99.90;;;;;;9985688;29;20054;-95
2021/01/29 14:41:57;;;;;;;31.85;6.82;;;8.80;99.90;;;;;;9970783;29;20058;-94
2021/01/29 14:47:30;;;;;;;21.88;4.65;;;8.90;99.90;;;;;;9987294;29;20094;-94
2021/01/29 14:52:50;;;;;;;40.65;6.85;;;8.90;99.90;;;;;;9986050;29;20054;-95
2021/01/29 14:57:55;;;;;;;21.80;5.88;;;8.90;99.90;;;;;;9969926;29;20525;-95
2021/01/29 15:03:11;;;;;;;36.55;6.95;;;8.80;99.90;;;;;;9969557;29;20058;-95
2021/01/29 15:08:23;;;;;;;22.92;4.95;;;8.80;99.90;;;;;;9971233;29;20494;-94
2021/01/29 15:13:58;;;;;;;18.92;4.32;;;8.90;99.90;;;;;;9985033;29;20149;-94
2021/01/29 15:18:59;;;;;;;38.40;6.47;;;8.80;99.90;;;;;;9992563;29;20062;-93
2021/01/29 15:24:03;;;;;;;30.45;6.22;;;8.80;99.90;;;;;;9991533;29;20414;-95
2021/01/29 15:29:11;;;;;;;37.28;6.75;;;8.70;99.90;;;;;;10007158;29;20057;-94
2021/01/29 15:34:14;;;;;;;29.63;5.22;;;8.80;99.90;;;;;;9992498;29;20061;-94
2021/01/29 15:39:18;;;;;;;30.70;5.53;;;8.70;99.90;;;;;;10006678;29;20058;-94
2021/01/29 15:44:23;;;;;;;33.10;7.18;;;8.70;99.90;;;;;;10005875;29;20058;-93
2021/01/29 16:01:51;;;;;;;;;;;8.60;99.90;;;;;;10032175;29;20054;-93
2021/01/29 16:07:11;;;;;;;27.83;4.63;;;8.50;99.90;;;;;;10005471;29;19963;-94
2021/01/29 16:12:27;;;;;;;34.55;5.22;;;8.50;99.90;;;;;;10021378;29;20046;-94
2021/01/29 16:17:29;;;;;;;22.73;4.82;;;8.50;99.90;;;;;;10020618;29;20053;-94
2021/01/29 16:22:30;;;;;;;;;;;8.40;99.90;;;;;;10006059;29;20058;-93
2021/01/29 16:27:37;;;;;;;35.67;6.28;;;8.50;99.90;;;;;;10011658;29;19931;-94
2021/01/29 16:32:38;;;;;;;25.92;5.00;;;8.40;99.90;;;;;;10012882;29;20486;-94
2021/01/29 16:37:43;;;;;;;24.42;6.93;;;8.40;99.90;;;;;;10011875;29;20525;-94
2021/01/29 16:42:45;;;;;;;29.48;5.93;;;8.40;99.90;;;;;;10026856;29;20114;-93
2021/01/29 16:48:10;;;;;;;21.75;5.60;;;8.40;99.90;;;;;;9996634;29;20058;-94
2021/01/29 16:53:29;;;;;;;30.20;5.55;;;8.40;99.90;;;;;;10026943;29;20095;-93
2021/01/29 16:58:38;;;;;;;29.52;7.00;;;8.40;99.90;;;;;;10026920;29;20479;-93
2021/01/29 17:03:46;;;;;;;26.50;5.25;;;8.30;99.90;;;;;;10026160;29;20058;-94
2021/01/29 17:08:51;;;;;;;24.15;6.03;;;8.30;99.90;;;;;;10026431;29;20062;-94
2021/01/29 17:13:54;;;;;;;31.52;5.35;;;8.30;99.90;;;;;;10026151;29;20573;-93
2021/01/29 17:19:00;;;;;;;20.73;4.90;;;8.30;99.90;;;;;;9999819;29;20073;-93
2021/01/29 17:24:08;;;;;;;28.98;5.32;;;8.40;99.90;;;;;;9987928;29;20092;-93
2021/01/29 17:29:20;;;;;;;27.77;6.43;;;8.30;99.90;;;;;;9987156;29;20055;-93
2021/01/29 17:34:32;;;;;;;20.58;6.18;;;8.30;99.90;;;;;;10002260;29;20406;-94
2021/01/29 17:39:41;;;;;;;19.08;4.93;;;8.20;99.90;;;;;;9987717;29;20517;-93
2021/01/29 17:45:00;;;;;;;19.98;4.95;;;8.20;99.90;;;;;;9988036;29;20066;-94
2021/01/29 17:50:20;;;;;;;26.20;5.18;;;8.30;99.90;;;;;;10024060;29;20072;-93
2021/01/29 17:55:42;;;;;;;23.30;5.05;;;8.20;99.90;;;;;;10024125;29;20077;-93
2021/01/29 18:01:07;;;;;;;20.77;5.05;;;8.30;99.90;;;;;;10024912;29;20058;-93
2021/01/29 18:06:27;;;;;;;24.60;6.93;;;8.30;99.90;;;;;;10024512;29;20068;-93
2021/01/29 18:11:32;;;;;;;22.02;5.20;;;8.20;99.90;;;;;;10008688;29;20525;-93
2021/01/29 18:16:36;;;;;;;22.98;5.53;;;8.20;99.90;;;;;;10013578;29;20054;-94
2021/01/29 18:21:44;;;;;;;15.40;5.40;;;8.30;99.90;;;;;;9986387;29;20062;-93
2021/01/29 18:26:46;;;;;;;20.60;5.88;;;8.30;99.90;;;;;;9986347;29;20165;-93
2021/01/29 18:31:48;;;;;;;14.43;5.38;;;8.20;99.90;;;;;;9986375;29;20145;-94
2021/01/29 18:36:52;;;;;;;19.75;4.18;;;8.20;99.90;;;;;;9985227;29;20125;-94
2021/01/29 18:41:53;;;;;;;26.67;5.45;;;8.20;99.90;;;;;;9986279;29;20141;-94
2021/01/29 18:46:55;;;;;;;22.13;5.78;;;8.20;99.90;;;;;;9984355;29;20066;-95
2021/01/29 18:51:57;;;;;;;16.70;5.05;;;8.10;99.90;;;;;;9992851;29;20096;-94
2021/01/29 18:56:58;;;;;;;22.65;7.70;;;8.10;99.90;;;;;;10008316;29;20542;-91
2021/01/29 19:02:01;;;;;;;21.08;4.57;;;8.10;99.90;;;;;;10022551;29;20074;-92
2021/01/29 19:07:05;;;;;;;9.85;3.55;;;8.10;99.90;;;;;;10021859;29;20122;-92
2021/01/29 19:12:11;;;;;;;9.27;2.90;;;8.00;99.90;;;;;;9979291;29;20149;-92
2021/01/29 19:17:16;;;;;;;7.15;2.53;;;8.00;99.90;;;;;;9962025;29;20063;-92
2021/01/29 19:22:19;;;;;;;11.38;2.30;;;7.90;99.90;;;;;;9984814;29;20046;-91
2021/01/29 19:27:20;;;;;;;10.68;3.03;;;7.80;99.90;;;;;;9984290;29;20422;-92
2021/01/29 19:32:22;;;;;;;12.52;2.35;;;7.70;99.90;;;;;;9984454;29;20507;-93
2021/01/29 19:37:24;;;;;;;6.50;2.63;;;7.50;99.90;;;;;;9968801;29;20058;-93
2021/01/29 19:42:28;;;;;;;9.82;2.78;;;7.40;99.90;;;;;;9983969;29;20062;-93
2021/01/29 19:47:30;;;;;;;13.88;2.75;;;7.30;99.90;;;;;;9954055;29;20133;-92
2021/01/29 19:52:31;;;;;;;;;;;7.30;99.90;;;;;;9969437;29;20062;-92
2021/01/29 19:57:34;;;;;;;9.88;2.78;;;7.20;99.90;;;;;;9968182;29;20007;-95
2021/01/29 20:02:36;;;;;;;14.57;2.47;;;7.20;99.90;;;;;;10005523;29;20090;-92
2021/01/29 20:07:38;;;;;;;8.27;3.35;;;7.10;99.90;;;;;;9975404;29;20066;-93
2021/01/29 20:12:48;;;;;;;11.55;3.17;;;7.10;99.90;;;;;;10005064;29;20294;-92
2021/01/29 20:18:10;;;;;;;5.97;2.60;;;7.00;99.90;;;;;;9989816;29;20126;-93
2021/01/29 20:23:13;;;;;;;3.13;1.83;;;6.90;99.90;;;;;;9990134;29;20058;-93
2021/01/29 20:28:18;;;;;;;9.82;3.58;;;6.90;99.90;;;;;;9989871;29;20063;-92
2021/01/29 20:33:23;;;;;;;8.20;2.47;;;6.80;99.90;;;;;;9990104;29;20085;-92
2021/01/29 20:38:25;;;;;;;7.53;2.53;;;6.70;99.90;;;;;;10025060;29;20060;-92
2021/01/29 20:43:32;;;;;;;9.82;2.80;;;6.70;99.90;;;;;;10027446;29;20054;-92
2021/01/29 20:48:34;;;;;;;7.13;2.08;;;6.70;99.90;;;;;;10011814;29;20086;-92
2021/01/29 20:53:37;;;;;;;8.48;3.20;;;6.60;99.90;;;;;;10026568;29;20065;-92
2021/01/29 20:58:40;;;;;;;7.32;4.13;;;6.60;99.90;;;;;;10012699;29;20118;-93
2021/01/29 21:03:41;;;;;;;8.50;4.38;;;6.50;99.90;;;;;;10011250;29;20061;-92
2021/01/29 21:08:45;;;;;;;;;;;6.50;99.90;;;;;;10012190;29;20149;-91
2021/01/29 21:13:47;;;;;;;8.68;4.97;;;6.40;99.90;;;;;;10010777;29;19999;-92
2021/01/29 21:18:48;;;;;;;7.63;3.70;;;6.30;99.90;;;;;;9978273;29;20055;-92
2021/01/29 21:23:50;;;;;;;9.02;4.63;;;6.00;99.90;;;;;;9958029;29;20058;-92
2021/01/29 21:28:52;;;;;;;32.55;22.05;;;5.90;99.90;;;;;;9972568;29;20122;-92
2021/01/29 21:33:53;;;;;;;18.42;14.50;;;5.50;99.90;;;;;;9972907;29;20149;-93
2021/01/29 21:38:55;;;;;;;13.10;11.27;;;5.20;99.90;;;;;;9987107;29;20062;-91
2021/01/29 21:43:57;;;;;;;15.73;13.00;;;5.10;99.90;;;;;;9987375;29;20060;-92
2021/01/29 22:13:44;;;;;;;17.08;11.52;;;4.90;99.90;;;;;;10023649;29;20062;-91
2021/01/29 22:18:48;;;;;;;15.85;12.38;;;4.80;99.90;;;;;;10008243;29;20081;-91
2021/01/29 22:24:09;;;;;;;15.88;12.32;;;4.80;99.90;;;;;;10008030;29;20581;-92
2021/01/29 22:29:12;;;;;;;16.98;13.13;;;4.60;99.90;;;;;;9993623;29;20141;-92
2021/01/29 22:34:13;;;;;;;16.13;12.95;;;4.40;99.90;;;;;;10008438;29;20058;-91
2021/01/29 22:39:15;;;;;;;22.15;12.70;;;4.20;99.90;;;;;;9993506;29;20061;-92
2021/01/29 22:44:16;;;;;;;17.17;12.35;;;4.00;99.90;;;;;;10008152;29;20089;-92
2021/01/29 22:49:18;;;;;;;24.95;15.80;;;4.00;99.90;;;;;;9992542;29;20064;-92
2021/01/29 22:54:19;;;;;;;21.60;11.82;;;3.90;99.90;;;;;;9992663;29;20517;-91
2021/01/29 22:59:21;;;;;;;23.13;14.40;;;3.80;99.90;;;;;;9992758;29;20061;-91
2021/01/29 23:04:22;;;;;;;21.42;12.23;;;3.70;99.90;;;;;;9992208;29;20145;-91
2021/01/29 23:09:24;;;;;;;;;;;3.50;99.90;;;;;;9977328;29;20502;-91
2021/01/29 23:14:27;;;;;;;20.40;14.13;;;3.30;99.90;;;;;;9991413;29;19951;-91
2021/01/29 23:19:30;;;;;;;17.17;12.23;;;3.30;99.90;;;;;;9984684;29;20058;-92
2021/01/29 23:24:31;;;;;;;20.90;12.43;;;3.20;99.90;;;;;;9984814;29;20065;-91
2021/01/29 23:29:33;;;;;;;13.45;9.95;;;3.20;99.90;;;;;;9991718;29;20594;-92
2021/01/29 23:34:34;;;;;;;16.67;9.30;;;3.10;99.90;;;;;;9982056;29;20064;-91
2021/01/29 23:39:36;;;;;;;13.57;9.80;;;3.10;99.90;;;;;;9974916;29;20066;-91
2021/01/29 23:44:38;;;;;;;15.23;10.02;;;2.90;99.90;;;;;;9988725;29;20066;-91
2021/01/29 23:49:39;;;;;;;14.75;9.07;;;2.70;99.90;;;;;;10004196;29;20057;-91
2021/01/29 23:54:42;;;;;;;8.30;7.50;;;2.60;99.90;;;;;;9989002;29;20053;-91
2021/01/29 23:59:45;;;;;;;10.10;5.78;;;2.60;99.90;;;;;;10019057;29;20058;-91
